createdAt,value
2023-05-01T00:01:29.100Z,12.97
2023-05-01T00:03:55.508Z,12.96
2023-05-01T00:06:22.035Z,12.94
2023-05-01T00:08:48.420Z,12.93
2023-05-01T00:11:14.737Z,12.97
2023-05-01T00:13:41.033Z,13.00
2023-05-01T00:16:07.338Z,12.92
2023-05-01T00:18:33.670Z,12.97
2023-05-01T00:20:59.968Z,12.93
2023-05-01T00:23:26.279Z,12.97
2023-05-01T00:25:52.584Z,13.01
2023-05-01T00:28:18.913Z,13.02
2023-05-01T00:30:45.241Z,13.03
2023-05-01T00:33:11.578Z,12.99
2023-05-01T00:35:37.936Z,12.93
2023-05-01T00:38:04.267Z,12.89
2023-05-01T00:40:30.608Z,12.90
2023-05-01T00:42:56.926Z,12.88
2023-05-01T00:45:23.246Z,12.88
2023-05-01T00:47:49.660Z,12.89
2023-05-01T00:50:16.015Z,12.92
2023-05-01T00:52:42.341Z,12.92
2023-05-01T00:55:08.689Z,12.83
2023-05-01T00:57:35.000Z,13.00
2023-05-01T01:00:01.326Z,12.91
2023-05-01T01:02:27.659Z,12.93
2023-05-01T01:04:54.145Z,12.88
2023-05-01T01:07:20.646Z,12.79
2023-05-01T01:09:46.979Z,12.77
2023-05-01T01:12:13.328Z,12.69
2023-05-01T01:14:39.639Z,12.61
2023-05-01T01:17:06.088Z,12.59
2023-05-01T01:19:32.480Z,12.48
2023-05-01T01:21:58.781Z,12.42
2023-05-01T01:24:25.102Z,12.51
2023-05-01T01:26:51.425Z,12.53
2023-05-01T01:29:17.749Z,12.53
2023-05-01T01:31:44.227Z,12.50
2023-05-01T01:34:10.725Z,12.45
2023-05-01T01:36:37.052Z,12.43
2023-05-01T01:39:03.368Z,12.48
2023-05-01T01:41:29.692Z,12.44
2023-05-01T01:43:55.996Z,12.50
2023-05-01T01:46:22.344Z,12.53
2023-05-01T01:48:48.693Z,12.59
2023-05-01T01:51:15.013Z,12.62
2023-05-01T01:53:41.317Z,12.56
2023-05-01T01:56:07.622Z,12.57
2023-05-01T01:58:33.929Z,12.48
2023-05-01T02:01:00.251Z,12.40
2023-05-01T02:03:26.797Z,12.40
2023-05-01T02:05:53.280Z,12.37
2023-05-01T02:08:19.600Z,12.36
2023-05-01T02:10:45.917Z,12.31
2023-05-01T02:13:12.277Z,12.34
2023-05-01T02:15:38.606Z,12.31
2023-05-01T02:18:04.975Z,12.24
2023-05-01T02:20:31.364Z,12.26
2023-05-01T02:22:57.704Z,12.25
2023-05-01T02:25:25.071Z,12.19
2023-05-01T02:27:51.389Z,12.18
2023-05-01T02:30:17.728Z,12.14
2023-05-01T02:32:44.134Z,12.15
2023-05-01T02:35:10.521Z,12.23
2023-05-01T02:37:36.844Z,12.23
2023-05-01T02:40:03.170Z,12.23
2023-05-01T02:42:29.498Z,12.19
2023-05-01T02:44:55.821Z,12.20
2023-05-01T02:47:22.200Z,12.18
2023-05-01T02:49:48.563Z,12.20
2023-05-01T02:52:14.862Z,12.10
2023-05-01T02:54:41.211Z,12.04
2023-05-01T02:57:07.538Z,12.11
2023-05-01T02:59:33.867Z,12.18
2023-05-01T03:02:00.178Z,12.17
2023-05-01T03:04:26.556Z,12.16
2023-05-01T03:06:52.942Z,12.17
2023-05-01T03:09:19.262Z,12.13
2023-05-01T03:11:45.565Z,12.09
2023-05-01T03:14:11.884Z,12.07
2023-05-01T03:16:38.323Z,12.07
2023-05-01T03:19:04.690Z,12.12
2023-05-01T03:21:31.002Z,12.09
2023-05-01T03:23:57.317Z,12.12
2023-05-01T03:26:23.636Z,12.08
2023-05-01T03:28:49.968Z,12.01
2023-05-01T03:31:16.298Z,11.99
2023-05-01T03:33:42.602Z,11.95
2023-05-01T03:36:08.906Z,11.84
2023-05-01T03:38:35.224Z,11.78
2023-05-01T03:41:01.536Z,11.72
2023-05-01T03:43:27.854Z,11.79
2023-05-01T03:45:54.188Z,11.81
2023-05-01T03:48:20.525Z,11.87
2023-05-01T03:50:46.869Z,11.88
2023-05-01T03:53:13.173Z,11.86
2023-05-01T03:55:39.496Z,11.74
2023-05-01T03:58:05.852Z,11.58
2023-05-01T04:00:32.172Z,11.58
2023-05-01T04:02:58.592Z,11.42
2023-05-01T04:05:25.067Z,11.45
2023-05-01T04:07:51.391Z,11.48
2023-05-01T04:10:17.725Z,11.38
2023-05-01T04:12:44.034Z,11.34
2023-05-01T04:15:10.344Z,11.32
2023-05-01T04:17:36.677Z,11.36
2023-05-01T04:20:03.033Z,11.40
2023-05-01T04:22:29.339Z,11.35
2023-05-01T04:24:55.848Z,11.28
2023-05-01T04:27:22.160Z,11.29
2023-05-01T04:29:48.499Z,11.26
2023-05-01T04:32:14.824Z,11.25
2023-05-01T04:34:41.118Z,11.23
2023-05-01T04:37:07.414Z,11.15
2023-05-01T04:39:33.717Z,11.23
2023-05-01T04:42:00.035Z,11.23
2023-05-01T04:44:26.367Z,11.24
2023-05-01T04:46:52.861Z,11.31
2023-05-01T04:49:19.304Z,11.37
2023-05-01T04:51:45.609Z,11.34
2023-05-01T04:54:11.957Z,11.29
2023-05-01T04:56:38.265Z,11.40
2023-05-01T04:59:04.580Z,11.50
2023-05-01T05:01:30.987Z,11.41
2023-05-01T05:03:57.488Z,11.30
2023-05-01T05:06:23.901Z,11.34
2023-05-01T05:08:50.221Z,11.37
2023-05-01T05:11:16.528Z,11.45
2023-05-01T05:13:42.844Z,11.51
2023-05-01T05:16:09.178Z,11.60
2023-05-01T05:18:35.499Z,11.46
2023-05-01T05:21:01.810Z,11.42
2023-05-01T05:23:28.117Z,11.28
2023-05-01T05:25:54.433Z,11.29
2023-05-01T05:28:20.750Z,11.35
2023-05-01T05:30:47.070Z,11.40
2023-05-01T05:33:13.493Z,11.38
2023-05-01T05:35:39.893Z,11.44
2023-05-01T05:38:06.199Z,11.50
2023-05-01T05:40:32.524Z,11.57
2023-05-01T05:42:58.854Z,11.58
2023-05-01T05:45:25.161Z,11.58
2023-05-01T05:47:51.523Z,11.62
2023-05-01T05:50:17.877Z,11.72
2023-05-01T05:52:44.194Z,11.81
2023-05-01T05:55:10.511Z,11.74
2023-05-01T05:57:36.831Z,11.67
2023-05-01T06:00:03.152Z,11.59
2023-05-01T06:02:29.508Z,11.57
2023-05-01T06:04:55.856Z,11.63
2023-05-01T06:07:22.169Z,11.65
2023-05-01T06:09:48.511Z,11.70
2023-05-01T06:12:14.828Z,11.75
2023-05-01T06:14:41.460Z,11.76
2023-05-01T06:17:07.792Z,11.85
2023-05-01T06:19:34.128Z,11.85
2023-05-01T06:22:00.454Z,11.94
2023-05-01T06:24:26.782Z,11.96
2023-05-01T06:26:53.129Z,11.97
2023-05-01T06:29:19.461Z,12.01
2023-05-01T06:31:45.856Z,12.07
2023-05-01T06:34:12.322Z,12.20
2023-05-01T06:36:38.633Z,12.06
2023-05-01T06:39:04.966Z,11.97
2023-05-01T06:41:31.288Z,11.96
2023-05-01T06:43:57.602Z,12.07
2023-05-01T06:46:23.941Z,12.03
2023-05-01T06:48:50.299Z,12.07
2023-05-01T06:51:16.614Z,12.09
2023-05-01T06:53:42.922Z,12.07
2023-05-01T06:56:09.234Z,12.17
2023-05-01T06:58:35.613Z,12.13
2023-05-01T07:01:01.952Z,12.10
2023-05-01T07:03:28.384Z,12.24
2023-05-01T07:05:54.733Z,12.33
2023-05-01T07:08:21.034Z,12.50
2023-05-01T07:10:47.378Z,12.50
2023-05-01T07:13:13.709Z,12.63
2023-05-01T07:15:40.026Z,12.60
2023-05-01T07:18:06.487Z,12.53
2023-05-01T07:20:32.902Z,12.44
2023-05-01T07:22:59.282Z,12.46
2023-05-01T07:25:25.600Z,12.45
2023-05-01T07:27:51.918Z,12.47
2023-05-01T07:30:18.258Z,12.37
2023-05-01T07:32:44.628Z,12.27
2023-05-01T07:35:10.954Z,12.19
2023-05-01T07:37:37.337Z,12.21
2023-05-01T07:40:03.676Z,12.20
2023-05-01T07:42:29.989Z,12.28
2023-05-01T07:44:56.321Z,12.34
2023-05-01T07:47:22.706Z,12.36
2023-05-01T07:49:49.043Z,12.32
2023-05-01T07:52:15.354Z,12.26
2023-05-01T07:54:41.746Z,12.25
2023-05-01T07:57:08.076Z,12.28
2023-05-01T07:59:34.417Z,12.31
2023-05-01T08:02:00.789Z,12.40
2023-05-01T08:04:27.155Z,12.48
2023-05-01T08:06:53.524Z,12.56
2023-05-01T08:09:19.847Z,12.58
2023-05-01T08:11:46.153Z,12.57
2023-05-01T08:14:12.501Z,12.65
2023-05-01T08:16:38.911Z,12.69
2023-05-01T08:19:05.305Z,12.71
2023-05-01T08:21:31.630Z,12.76
2023-05-01T08:23:57.951Z,12.76
2023-05-01T08:26:24.283Z,12.72
2023-05-01T08:28:50.640Z,12.79
2023-05-01T08:31:16.977Z,12.80
2023-05-01T08:33:43.311Z,12.88
2023-05-01T08:36:09.641Z,12.94
2023-05-01T08:38:35.966Z,12.98
2023-05-01T08:41:02.291Z,13.06
2023-05-01T08:43:28.661Z,13.14
2023-05-01T08:45:54.957Z,13.21
2023-05-01T08:48:21.286Z,13.32
2023-05-01T08:50:47.613Z,13.38
2023-05-01T08:53:13.918Z,13.42
2023-05-01T08:55:40.222Z,13.51
2023-05-01T08:58:06.550Z,13.55
2023-05-01T09:00:32.861Z,13.52
2023-05-01T09:02:59.204Z,13.53
2023-05-01T09:05:25.565Z,13.61
2023-05-01T09:07:51.869Z,13.54
2023-05-01T09:10:18.186Z,13.58
2023-05-01T09:12:44.491Z,13.59
2023-05-01T09:15:10.826Z,13.59
2023-05-01T09:17:37.193Z,13.63
2023-05-01T09:20:03.552Z,13.65
2023-05-01T09:22:29.851Z,13.67
2023-05-01T09:24:56.197Z,13.69
2023-05-01T09:27:22.549Z,13.66
2023-05-01T09:29:48.849Z,13.66
2023-05-01T09:32:15.215Z,13.72
2023-05-01T09:34:41.581Z,13.77
2023-05-01T09:37:07.910Z,13.77
2023-05-01T09:39:34.252Z,13.78
2023-05-01T09:42:00.580Z,13.83
2023-05-01T09:44:26.926Z,13.94
2023-05-01T09:46:53.249Z,13.97
2023-05-01T09:49:19.556Z,14.05
2023-05-01T09:51:45.858Z,14.06
2023-05-01T09:54:12.157Z,14.19
2023-05-01T09:56:38.473Z,14.37
2023-05-01T09:59:04.799Z,14.45
2023-05-01T10:01:31.196Z,14.56
2023-05-01T10:03:57.699Z,14.65
2023-05-01T10:06:24.166Z,14.72
2023-05-01T10:08:50.649Z,14.80
2023-05-01T10:11:17.016Z,14.88
2023-05-01T10:13:43.346Z,14.93
2023-05-01T10:16:09.687Z,14.99
2023-05-01T10:18:35.993Z,14.90
2023-05-01T10:21:02.478Z,14.89
2023-05-01T10:23:28.803Z,14.92
2023-05-01T10:25:55.144Z,14.93
2023-05-01T10:28:21.462Z,14.99
2023-05-01T10:30:47.769Z,15.00
2023-05-01T10:33:14.237Z,15.06
2023-05-01T10:35:40.705Z,15.02
2023-05-01T10:38:07.050Z,15.09
2023-05-01T10:40:33.364Z,15.06
2023-05-01T10:42:59.692Z,15.11
2023-05-01T10:45:25.997Z,15.08
2023-05-01T10:47:52.361Z,14.93
2023-05-01T10:50:18.754Z,14.91
2023-05-01T10:52:45.083Z,14.79
2023-05-01T10:55:11.415Z,14.94
2023-05-01T10:57:37.725Z,15.15
2023-05-01T11:00:04.055Z,15.07
2023-05-01T11:02:30.416Z,14.91
2023-05-01T11:04:57.122Z,14.82
2023-05-01T11:07:23.798Z,14.80
2023-05-01T11:09:50.216Z,14.73
2023-05-01T11:12:16.527Z,14.87
2023-05-01T11:14:42.845Z,14.86
2023-05-01T11:17:09.157Z,15.00
2023-05-01T11:19:35.462Z,14.85
2023-05-01T11:22:01.789Z,14.96
2023-05-01T11:24:28.119Z,14.95
2023-05-01T11:26:54.442Z,15.02
2023-05-01T11:29:20.745Z,15.19
2023-05-01T11:31:47.112Z,15.16
2023-05-01T11:34:13.417Z,15.25
2023-05-01T11:36:39.739Z,15.19
2023-05-01T11:39:06.056Z,14.86
2023-05-01T11:41:32.388Z,14.60
2023-05-01T11:43:58.714Z,14.38
2023-05-01T11:46:25.167Z,14.35
2023-05-01T11:48:51.565Z,14.34
2023-05-01T11:51:17.868Z,14.42
2023-05-01T11:53:44.181Z,14.66
2023-05-01T11:56:19.480Z,14.64
2023-05-01T11:58:52.098Z,14.64
2023-05-01T12:01:18.423Z,14.62
2023-05-01T12:03:44.829Z,14.56
2023-05-01T12:06:11.287Z,14.56
2023-05-01T12:08:37.660Z,14.52
2023-05-01T12:11:04.051Z,14.56
2023-05-01T12:13:30.412Z,14.51
2023-05-01T12:15:56.735Z,14.46
2023-05-01T12:18:23.133Z,14.48
2023-05-01T12:20:49.489Z,14.72
2023-05-01T12:23:15.808Z,14.71
2023-05-01T12:25:42.125Z,14.86
2023-05-01T12:28:08.460Z,14.97
2023-05-01T12:30:34.825Z,15.02
2023-05-01T12:33:01.214Z,15.17
2023-05-01T12:35:27.570Z,15.22
2023-05-01T12:37:53.873Z,15.15
2023-05-01T12:40:20.179Z,15.06
2023-05-01T12:42:46.501Z,14.71
2023-05-01T12:45:12.831Z,14.87
2023-05-01T12:47:39.159Z,14.92
2023-05-01T12:50:05.493Z,15.07
2023-05-01T12:52:31.802Z,14.90
2023-05-01T12:54:58.283Z,14.85
2023-05-01T12:57:24.888Z,14.84
2023-05-01T12:59:51.212Z,14.77
2023-05-01T13:02:17.667Z,14.84
2023-05-01T13:04:44.049Z,14.85
2023-05-01T13:07:10.351Z,14.98
2023-05-01T13:09:36.654Z,15.21
2023-05-01T13:12:02.968Z,15.25
2023-05-01T13:14:29.311Z,15.10
2023-05-01T13:16:55.632Z,15.16
2023-05-01T13:19:21.969Z,15.20
2023-05-01T13:21:48.287Z,15.35
2023-05-01T13:24:14.603Z,15.42
2023-05-01T13:26:40.918Z,15.33
2023-05-01T13:29:07.269Z,15.36
2023-05-01T13:31:33.635Z,15.38
2023-05-01T13:33:59.997Z,15.59
2023-05-01T13:36:27.231Z,15.52
2023-05-01T13:38:53.795Z,15.53
2023-05-01T13:41:20.122Z,15.68
2023-05-01T13:43:46.425Z,15.80
2023-05-01T13:46:12.774Z,15.87
2023-05-01T13:48:39.131Z,16.03
2023-05-01T13:51:05.461Z,16.10
2023-05-01T13:53:31.791Z,16.14
2023-05-01T13:55:58.141Z,16.20
2023-05-01T13:58:24.443Z,16.19
2023-05-01T14:00:50.825Z,16.25
2023-05-01T14:03:17.249Z,16.20
2023-05-01T14:05:43.613Z,16.16
2023-05-01T14:08:10.009Z,16.30
2023-05-01T14:10:36.333Z,16.27
2023-05-01T14:13:02.644Z,16.24
2023-05-01T14:15:28.995Z,16.18
2023-05-01T14:17:55.377Z,16.06
2023-05-01T14:20:21.713Z,16.30
2023-05-01T14:22:48.091Z,16.30
2023-05-01T14:25:14.429Z,16.55
2023-05-01T14:27:40.753Z,16.57
2023-05-01T14:30:07.070Z,16.42
2023-05-01T14:32:33.491Z,16.51
2023-05-01T14:34:59.964Z,16.39
2023-05-01T14:37:26.406Z,16.45
2023-05-01T14:39:52.761Z,16.50
2023-05-01T14:42:19.074Z,16.72
2023-05-01T14:44:45.380Z,16.65
2023-05-01T14:47:11.700Z,16.70
2023-05-01T14:49:38.022Z,16.96
2023-05-01T14:52:04.332Z,16.72
2023-05-01T14:54:30.662Z,16.77
2023-05-01T14:56:56.999Z,16.98
2023-05-01T14:59:23.317Z,16.92
2023-05-01T15:01:49.706Z,17.20
2023-05-01T15:04:16.208Z,17.19
2023-05-01T15:06:42.684Z,17.20
2023-05-01T15:09:09.009Z,17.10
2023-05-01T15:11:35.338Z,16.93
2023-05-01T15:14:01.673Z,16.56
2023-05-01T15:16:28.057Z,16.05
2023-05-01T15:18:54.459Z,15.86
2023-05-01T15:21:20.774Z,15.41
2023-05-01T15:23:47.090Z,14.85
2023-05-01T15:26:13.425Z,14.86
2023-05-01T15:28:39.750Z,14.84
2023-05-01T15:31:06.051Z,14.80
2023-05-01T15:33:32.409Z,14.90
2023-05-01T15:35:58.756Z,14.92
2023-05-01T15:38:25.070Z,15.18
2023-05-01T15:40:51.379Z,15.20
2023-05-01T15:43:17.701Z,15.19
2023-05-01T15:45:44.066Z,15.05
2023-05-01T15:48:10.510Z,15.05
2023-05-01T15:50:36.871Z,14.95
2023-05-01T15:53:03.186Z,14.96
2023-05-01T15:55:29.475Z,14.93
2023-05-01T15:57:55.770Z,14.96
2023-05-01T16:00:22.090Z,15.07
2023-05-01T16:02:48.524Z,15.17
2023-05-01T16:05:14.912Z,15.35
2023-05-01T16:07:41.214Z,15.35
2023-05-01T16:10:07.543Z,15.39
2023-05-01T16:12:33.856Z,15.41
2023-05-01T16:15:00.155Z,15.46
2023-05-01T16:17:26.516Z,15.43
2023-05-01T16:19:52.896Z,15.42
2023-05-01T16:22:19.220Z,15.50
2023-05-01T16:24:45.551Z,15.41
2023-05-01T16:27:11.867Z,15.45
2023-05-01T16:29:38.199Z,15.49
2023-05-01T16:32:04.575Z,15.34
2023-05-01T16:34:30.965Z,15.20
2023-05-01T16:36:57.288Z,15.34
2023-05-01T16:39:23.633Z,15.43
2023-05-01T16:41:49.969Z,15.27
2023-05-01T16:44:16.309Z,15.09
2023-05-01T16:46:42.748Z,15.00
2023-05-01T16:49:09.129Z,14.90
2023-05-01T16:51:35.455Z,14.92
2023-05-01T16:54:01.757Z,14.79
2023-05-01T16:56:28.118Z,14.91
2023-05-01T16:58:54.442Z,14.71
2023-05-01T17:01:20.780Z,14.58
2023-05-01T17:03:47.139Z,14.50
2023-05-01T17:06:13.532Z,14.48
2023-05-01T17:08:39.868Z,14.36
2023-05-01T17:11:06.202Z,14.32
2023-05-01T17:13:32.513Z,14.39
2023-05-01T17:15:58.829Z,14.37
2023-05-01T17:18:25.154Z,14.44
2023-05-01T17:20:51.469Z,14.46
2023-05-01T17:23:17.799Z,14.32
2023-05-01T17:25:44.147Z,14.30
2023-05-01T17:28:10.471Z,14.27
2023-05-01T17:30:36.786Z,14.24
2023-05-01T17:33:03.198Z,14.27
2023-05-01T17:35:29.584Z,14.34
2023-05-01T17:37:55.888Z,14.36
2023-05-01T17:40:22.230Z,14.48
2023-05-01T17:42:48.585Z,14.68
2023-05-01T17:45:14.891Z,14.73
2023-05-01T17:47:41.312Z,14.73
2023-05-01T17:50:07.745Z,14.73
2023-05-01T17:52:34.061Z,15.00
2023-05-01T17:55:00.366Z,15.17
2023-05-01T17:57:26.699Z,15.44
2023-05-01T17:59:53.035Z,15.53
2023-05-01T18:02:19.449Z,15.64
2023-05-01T18:04:45.822Z,15.51
2023-05-01T18:07:12.235Z,15.38
2023-05-01T18:09:38.556Z,15.32
2023-05-01T18:12:04.853Z,15.22
2023-05-01T18:14:31.155Z,15.12
2023-05-01T18:16:57.529Z,14.98
2023-05-01T18:19:23.922Z,14.89
2023-05-01T18:21:56.287Z,14.75
2023-05-01T18:24:22.611Z,14.67
2023-05-01T18:26:49.014Z,14.65
2023-05-01T18:29:15.343Z,14.64
2023-05-01T18:31:41.665Z,14.52
2023-05-01T18:34:08.044Z,14.42
2023-05-01T18:36:34.362Z,14.32
2023-05-01T18:39:00.674Z,14.22
2023-05-01T18:41:27.012Z,14.15
2023-05-01T18:43:56.375Z,14.08
2023-05-01T18:46:24.119Z,14.05
2023-05-01T18:48:50.453Z,13.96
2023-05-01T18:51:16.766Z,13.96
2023-05-01T18:53:43.068Z,13.85
2023-05-01T18:56:09.442Z,13.76
2023-05-01T18:58:35.805Z,13.65
2023-05-01T19:01:02.121Z,13.57
2023-05-01T19:03:28.443Z,13.47
2023-05-01T19:05:54.766Z,13.43
2023-05-01T19:08:21.092Z,13.35
2023-05-01T19:10:47.434Z,13.40
2023-05-01T19:13:13.756Z,13.28
2023-05-01T19:15:40.110Z,13.21
2023-05-01T19:18:06.506Z,13.17
2023-05-01T19:20:32.872Z,13.11
2023-05-01T19:22:59.195Z,13.08
2023-05-01T19:25:25.498Z,12.98
2023-05-01T19:27:51.831Z,12.89
2023-05-01T19:30:18.145Z,12.86
2023-05-01T19:32:44.479Z,12.86
2023-05-01T19:35:11.054Z,12.89
2023-05-01T19:37:37.428Z,12.74
2023-05-01T19:40:03.771Z,12.75
2023-05-01T19:42:30.085Z,12.72
2023-05-01T19:44:56.398Z,12.72
2023-05-01T19:47:22.787Z,12.74
2023-05-01T19:49:49.174Z,12.71
2023-05-01T19:52:15.477Z,12.74
2023-05-01T19:54:41.781Z,12.75
2023-05-01T19:57:08.092Z,12.71
2023-05-01T19:59:34.409Z,12.72
2023-05-01T20:02:01.436Z,12.72
2023-05-01T20:04:28.011Z,12.72
2023-05-01T20:06:54.479Z,12.91
2023-05-01T20:09:20.847Z,12.82
2023-05-01T20:11:47.181Z,12.72
2023-05-01T20:14:13.512Z,12.66
2023-05-01T20:16:39.884Z,12.55
2023-05-01T20:19:06.230Z,12.64
2023-05-01T20:21:32.551Z,12.62
2023-05-01T20:23:58.904Z,12.48
2023-05-01T20:26:25.211Z,12.47
2023-05-01T20:28:51.527Z,12.45
2023-05-01T20:31:17.914Z,12.48
2023-05-01T20:33:44.290Z,12.53
2023-05-01T20:36:10.609Z,12.57
2023-05-01T20:38:36.940Z,12.49
2023-05-01T20:41:03.251Z,12.54
2023-05-01T20:43:29.572Z,12.44
2023-05-01T20:45:56.006Z,12.38
2023-05-01T20:48:22.369Z,12.20
2023-05-01T20:50:48.748Z,12.27
2023-05-01T20:53:15.070Z,12.27
2023-05-01T20:55:41.401Z,12.32
2023-05-01T20:58:07.737Z,12.41
2023-05-01T21:00:34.071Z,12.43
2023-05-01T21:03:00.507Z,12.36
2023-05-01T21:05:26.942Z,12.36
2023-05-01T21:07:53.259Z,12.43
2023-05-01T21:10:19.568Z,12.50
2023-05-01T21:12:45.866Z,12.52
2023-05-01T21:15:12.165Z,12.54
2023-05-01T21:17:38.506Z,12.62
2023-05-01T21:20:04.873Z,12.64
2023-05-01T21:22:31.187Z,12.52
2023-05-01T21:24:57.533Z,12.37
2023-05-01T21:27:23.842Z,12.37
2023-05-01T21:29:50.161Z,12.23
2023-05-01T21:32:16.482Z,12.18
2023-05-01T21:34:42.805Z,12.14
2023-05-01T21:37:09.128Z,12.07
2023-05-01T21:39:35.457Z,12.01
2023-05-01T21:42:01.772Z,11.94
2023-05-01T21:44:28.086Z,11.73
2023-05-01T21:46:54.445Z,11.68
2023-05-01T21:49:20.819Z,11.57
2023-05-01T21:51:47.114Z,11.52
2023-05-01T21:54:13.424Z,11.55
2023-05-01T21:56:39.756Z,11.53
2023-05-01T21:59:06.092Z,11.49
2023-05-01T22:01:32.504Z,11.49
2023-05-01T22:03:58.948Z,11.47
2023-05-01T22:06:25.365Z,11.40
2023-05-01T22:08:51.702Z,11.35
2023-05-01T22:11:18.033Z,11.35
2023-05-01T22:13:44.353Z,11.31
2023-05-01T22:16:10.720Z,11.36
2023-05-01T22:18:37.042Z,11.31
2023-05-01T22:21:03.411Z,11.32
2023-05-01T22:23:29.737Z,11.32
2023-05-01T22:25:56.060Z,11.34
2023-05-01T22:28:22.798Z,11.26
2023-05-01T22:30:49.159Z,11.21
2023-05-01T22:33:15.502Z,11.23
2023-05-01T22:35:41.886Z,11.30
2023-05-01T22:38:08.214Z,11.27
2023-05-01T22:40:34.547Z,11.25
2023-05-01T22:43:00.869Z,11.23
2023-05-01T22:45:27.175Z,11.15
2023-05-01T22:47:53.530Z,11.09
2023-05-01T22:50:19.902Z,11.12
2023-05-01T22:52:46.626Z,11.17
2023-05-01T22:55:13.060Z,11.11
2023-05-01T22:57:39.404Z,10.97
2023-05-01T23:00:05.822Z,10.94
2023-05-01T23:02:32.235Z,10.86
2023-05-01T23:04:58.643Z,10.84
2023-05-01T23:07:24.961Z,10.82
2023-05-01T23:09:51.291Z,10.86
2023-05-01T23:12:17.620Z,10.83
2023-05-01T23:14:43.949Z,10.85
2023-05-01T23:17:10.271Z,10.72
2023-05-01T23:19:36.575Z,10.73
2023-05-01T23:22:02.893Z,10.73
2023-05-01T23:24:29.199Z,10.68
2023-05-01T23:26:55.504Z,10.69
2023-05-01T23:29:21.799Z,10.68
2023-05-01T23:31:48.131Z,10.58
2023-05-01T23:34:14.457Z,10.52
2023-05-01T23:36:40.758Z,10.60
2023-05-01T23:39:07.068Z,10.54
2023-05-01T23:41:33.391Z,10.47
2023-05-01T23:43:59.708Z,10.39
2023-05-01T23:46:26.057Z,10.28
2023-05-01T23:48:52.423Z,10.38
2023-05-01T23:51:18.755Z,10.31
2023-05-01T23:53:45.063Z,10.22
2023-05-01T23:56:11.386Z,10.08
2023-05-01T23:58:37.727Z,10.21
